Terminal Aerodrome Forecast
Issued by NWS

Home | Current Version | Previous Version | Text Only | Print | Product List | Glossary On
Versions: 1 2 3 4 5 6 7 8 9 10 11 12 13 14 15 16 17 18 19 20 21 22 23 24 25 26 27 28 29 30 31 32
673
FTAK31 PANC 250540
TAFACD
TAF
PACD 250540Z 2506/2606 15025G32KT P6SM -RA SCT015 BKN025
     FM250900 15025G35KT P6SM -RA BKN007 OVC015
     FM251800 14025G38KT 5SM -RA BR OVC007
     FM260000 15025G35KT P6SM -SHRA SCT007 OVC015=

USA.gov is the U.S. government's official web portal to all federal, state and local government web resources and services.